sensor_id;sensor_type;location;lat;lon;timestamp;P1;durP1;ratioP1;P2;durP2;ratioP2
8556;SDS011;4316;53.840;10.762;2024-02-26T00:02:00;2.23;;;2.13;;
8556;SDS011;4316;53.840;10.762;2024-02-26T00:04:26;3.47;;;2.33;;
8556;SDS011;4316;53.840;10.762;2024-02-26T00:06:51;3.20;;;2.90;;
8556;SDS011;4316;53.840;10.762;2024-02-26T00:09:19;2.93;;;2.73;;
8556;SDS011;4316;53.840;10.762;2024-02-26T00:11:45;2.63;;;2.43;;
8556;SDS011;4316;53.840;10.762;2024-02-26T00:14:10;3.17;;;2.87;;
8556;SDS011;4316;53.840;10.762;2024-02-26T00:16:36;4.30;;;2.80;;
8556;SDS011;4316;53.840;10.762;2024-02-26T00:19:06;3.43;;;2.73;;
8556;SDS011;4316;53.840;10.762;2024-02-26T00:21:31;2.73;;;2.53;;
8556;SDS011;4316;53.840;10.762;2024-02-26T00:23:57;3.20;;;3.00;;
8556;SDS011;4316;53.840;10.762;2024-02-26T00:26:23;2.70;;;2.50;;
8556;SDS011;4316;53.840;10.762;2024-02-26T00:28:49;2.77;;;2.57;;
8556;SDS011;4316;53.840;10.762;2024-02-26T00:31:14;2.60;;;2.40;;
8556;SDS011;4316;53.840;10.762;2024-02-26T00:33:41;2.60;;;2.40;;
8556;SDS011;4316;53.840;10.762;2024-02-26T00:36:07;4.80;;;2.27;;
8556;SDS011;4316;53.840;10.762;2024-02-26T00:38:32;2.30;;;2.20;;
8556;SDS011;4316;53.840;10.762;2024-02-26T00:40:59;2.63;;;2.43;;
8556;SDS011;4316;53.840;10.762;2024-02-26T00:43:25;2.23;;;2.10;;
8556;SDS011;4316;53.840;10.762;2024-02-26T00:45:50;2.43;;;2.30;;
8556;SDS011;4316;53.840;10.762;2024-02-26T00:48:17;2.27;;;2.17;;
8556;SDS011;4316;53.840;10.762;2024-02-26T00:50:43;2.60;;;2.40;;
8556;SDS011;4316;53.840;10.762;2024-02-26T00:53:09;2.33;;;2.20;;
8556;SDS011;4316;53.840;10.762;2024-02-26T00:55:34;2.57;;;2.43;;
8556;SDS011;4316;53.840;10.762;2024-02-26T00:58:00;2.60;;;2.40;;
8556;SDS011;4316;53.840;10.762;2024-02-26T01:00:26;2.57;;;2.40;;
8556;SDS011;4316;53.840;10.762;2024-02-26T01:02:52;2.70;;;2.50;;
8556;SDS011;4316;53.840;10.762;2024-02-26T01:05:18;2.27;;;2.17;;
8556;SDS011;4316;53.840;10.762;2024-02-26T01:07:43;9.27;;;2.40;;
8556;SDS011;4316;53.840;10.762;2024-02-26T01:10:09;3.60;;;2.30;;
8556;SDS011;4316;53.840;10.762;2024-02-26T01:12:35;2.50;;;2.33;;
8556;SDS011;4316;53.840;10.762;2024-02-26T01:15:01;2.10;;;2.00;;
8556;SDS011;4316;53.840;10.762;2024-02-26T01:17:30;2.30;;;2.20;;
8556;SDS011;4316;53.840;10.762;2024-02-26T01:19:56;2.23;;;2.00;;
8556;SDS011;4316;53.840;10.762;2024-02-26T01:22:22;2.13;;;1.87;;
8556;SDS011;4316;53.840;10.762;2024-02-26T01:24:48;1.90;;;1.80;;
8556;SDS011;4316;53.840;10.762;2024-02-26T01:27:14;2.17;;;2.07;;
8556;SDS011;4316;53.840;10.762;2024-02-26T01:29:41;2.00;;;1.90;;
8556;SDS011;4316;53.840;10.762;2024-02-26T01:32:07;2.10;;;2.00;;
8556;SDS011;4316;53.840;10.762;2024-02-26T01:34:32;1.80;;;1.70;;
8556;SDS011;4316;53.840;10.762;2024-02-26T01:36:58;1.93;;;1.83;;
8556;SDS011;4316;53.840;10.762;2024-02-26T01:39:25;2.10;;;2.00;;
8556;SDS011;4316;53.840;10.762;2024-02-26T01:41:52;2.03;;;1.83;;
8556;SDS011;4316;53.840;10.762;2024-02-26T01:44:19;2.10;;;2.00;;
8556;SDS011;4316;53.840;10.762;2024-02-26T01:46:44;2.60;;;1.90;;
8556;SDS011;4316;53.840;10.762;2024-02-26T01:49:11;2.87;;;1.90;;
8556;SDS011;4316;53.840;10.762;2024-02-26T01:51:38;5.43;;;2.30;;
8556;SDS011;4316;53.840;10.762;2024-02-26T01:54:05;2.37;;;2.23;;
8556;SDS011;4316;53.840;10.762;2024-02-26T01:56:33;2.00;;;1.90;;
8556;SDS011;4316;53.840;10.762;2024-02-26T01:59:01;2.73;;;2.10;;
8556;SDS011;4316;53.840;10.762;2024-02-26T02:01:29;1.80;;;1.70;;
8556;SDS011;4316;53.840;10.762;2024-02-26T02:03:56;2.17;;;2.07;;
8556;SDS011;4316;53.840;10.762;2024-02-26T02:06:23;2.10;;;2.00;;
8556;SDS011;4316;53.840;10.762;2024-02-26T02:08:49;2.00;;;1.90;;
8556;SDS011;4316;53.840;10.762;2024-02-26T02:11:16;1.90;;;1.80;;
8556;SDS011;4316;53.840;10.762;2024-02-26T02:13:42;2.73;;;2.50;;
8556;SDS011;4316;53.840;10.762;2024-02-26T02:16:08;2.23;;;2.10;;
8556;SDS011;4316;53.840;10.762;2024-02-26T02:18:34;3.00;;;2.70;;
8556;SDS011;4316;53.840;10.762;2024-02-26T02:21:00;1.97;;;1.87;;
8556;SDS011;4316;53.840;10.762;2024-02-26T02:23:26;1.90;;;1.80;;
8556;SDS011;4316;53.840;10.762;2024-02-26T02:25:52;1.90;;;1.80;;
8556;SDS011;4316;53.840;10.762;2024-02-26T02:28:18;2.00;;;1.90;;
8556;SDS011;4316;53.840;10.762;2024-02-26T02:30:45;2.50;;;2.30;;
8556;SDS011;4316;53.840;10.762;2024-02-26T02:33:10;2.03;;;1.93;;
8556;SDS011;4316;53.840;10.762;2024-02-26T02:35:37;1.60;;;1.60;;
8556;SDS011;4316;53.840;10.762;2024-02-26T02:38:03;2.10;;;2.00;;
8556;SDS011;4316;53.840;10.762;2024-02-26T02:40:29;2.30;;;2.20;;
8556;SDS011;4316;53.840;10.762;2024-02-26T02:42:54;1.83;;;1.80;;
8556;SDS011;4316;53.840;10.762;2024-02-26T02:45:20;2.37;;;2.27;;
8556;SDS011;4316;53.840;10.762;2024-02-26T02:47:47;2.23;;;2.13;;
8556;SDS011;4316;53.840;10.762;2024-02-26T02:50:12;2.13;;;1.87;;
8556;SDS011;4316;53.840;10.762;2024-02-26T02:52:38;2.30;;;2.10;;
8556;SDS011;4316;53.840;10.762;2024-02-26T02:55:04;1.90;;;1.80;;
8556;SDS011;4316;53.840;10.762;2024-02-26T02:57:30;1.77;;;1.67;;
8556;SDS011;4316;53.840;10.762;2024-02-26T02:59:58;1.70;;;1.60;;
8556;SDS011;4316;53.840;10.762;2024-02-26T03:02:24;2.00;;;1.80;;
8556;SDS011;4316;53.840;10.762;2024-02-26T03:04:50;2.37;;;2.17;;
8556;SDS011;4316;53.840;10.762;2024-02-26T03:07:16;2.00;;;1.90;;
8556;SDS011;4316;53.840;10.762;2024-02-26T03:09:42;4.47;;;1.97;;
8556;SDS011;4316;53.840;10.762;2024-02-26T03:12:09;2.60;;;1.90;;
8556;SDS011;4316;53.840;10.762;2024-02-26T03:14:34;3.33;;;2.10;;
8556;SDS011;4316;53.840;10.762;2024-02-26T03:17:00;2.20;;;2.00;;
8556;SDS011;4316;53.840;10.762;2024-02-26T03:19:26;2.70;;;2.20;;
8556;SDS011;4316;53.840;10.762;2024-02-26T03:21:52;3.57;;;1.90;;
8556;SDS011;4316;53.840;10.762;2024-02-26T03:24:17;2.20;;;2.07;;
8556;SDS011;4316;53.840;10.762;2024-02-26T03:26:43;1.97;;;1.87;;
8556;SDS011;4316;53.840;10.762;2024-02-26T03:29:09;3.53;;;2.17;;
8556;SDS011;4316;53.840;10.762;2024-02-26T03:31:35;2.00;;;1.90;;
8556;SDS011;4316;53.840;10.762;2024-02-26T03:34:01;1.97;;;1.87;;
8556;SDS011;4316;53.840;10.762;2024-02-26T03:36:27;4.33;;;2.00;;
8556;SDS011;4316;53.840;10.762;2024-02-26T03:38:53;2.00;;;1.90;;
8556;SDS011;4316;53.840;10.762;2024-02-26T03:41:19;2.10;;;2.00;;
8556;SDS011;4316;53.840;10.762;2024-02-26T03:43:44;1.90;;;1.80;;
8556;SDS011;4316;53.840;10.762;2024-02-26T03:46:10;1.80;;;1.70;;
8556;SDS011;4316;53.840;10.762;2024-02-26T03:48:38;1.90;;;1.80;;
8556;SDS011;4316;53.840;10.762;2024-02-26T03:51:05;2.30;;;2.20;;
8556;SDS011;4316;53.840;10.762;2024-02-26T03:53:33;1.90;;;1.90;;
8556;SDS011;4316;53.840;10.762;2024-02-26T03:56:02;4.30;;;2.13;;
8556;SDS011;4316;53.840;10.762;2024-02-26T03:58:29;2.73;;;2.20;;
8556;SDS011;4316;53.840;10.762;2024-02-26T04:00:54;1.90;;;1.80;;
8556;SDS011;4316;53.840;10.762;2024-02-26T04:03:21;1.97;;;1.87;;
8556;SDS011;4316;53.840;10.762;2024-02-26T04:05:46;5.90;;;1.70;;
8556;SDS011;4316;53.840;10.762;2024-02-26T04:08:13;1.87;;;1.77;;
8556;SDS011;4316;53.840;10.762;2024-02-26T04:10:39;1.93;;;1.83;;
8556;SDS011;4316;53.840;10.762;2024-02-26T04:13:06;2.30;;;2.20;;
8556;SDS011;4316;53.840;10.762;2024-02-26T04:15:32;2.10;;;2.00;;
8556;SDS011;4316;53.840;10.762;2024-02-26T04:17:58;3.23;;;2.10;;
8556;SDS011;4316;53.840;10.762;2024-02-26T04:20:24;2.30;;;2.20;;
8556;SDS011;4316;53.840;10.762;2024-02-26T04:22:50;2.30;;;2.20;;
8556;SDS011;4316;53.840;10.762;2024-02-26T04:25:16;2.10;;;2.00;;
8556;SDS011;4316;53.840;10.762;2024-02-26T04:27:42;2.70;;;2.50;;
8556;SDS011;4316;53.840;10.762;2024-02-26T04:30:08;2.17;;;2.07;;
8556;SDS011;4316;53.840;10.762;2024-02-26T04:32:34;2.67;;;2.47;;
8556;SDS011;4316;53.840;10.762;2024-02-26T04:35:03;2.27;;;1.80;;
8556;SDS011;4316;53.840;10.762;2024-02-26T04:37:29;2.17;;;2.07;;
8556;SDS011;4316;53.840;10.762;2024-02-26T04:39:57;3.07;;;1.93;;
8556;SDS011;4316;53.840;10.762;2024-02-26T04:42:26;3.37;;;2.03;;
8556;SDS011;4316;53.840;10.762;2024-02-26T04:44:52;2.37;;;2.00;;
8556;SDS011;4316;53.840;10.762;2024-02-26T04:47:19;2.00;;;1.93;;
8556;SDS011;4316;53.840;10.762;2024-02-26T04:49:47;2.60;;;1.73;;
8556;SDS011;4316;53.840;10.762;2024-02-26T04:52:14;2.00;;;1.90;;
8556;SDS011;4316;53.840;10.762;2024-02-26T04:54:40;2.20;;;2.10;;
8556;SDS011;4316;53.840;10.762;2024-02-26T04:57:06;2.67;;;2.50;;
8556;SDS011;4316;53.840;10.762;2024-02-26T04:59:32;3.87;;;2.43;;
8556;SDS011;4316;53.840;10.762;2024-02-26T05:01:57;4.53;;;2.17;;
8556;SDS011;4316;53.840;10.762;2024-02-26T05:04:23;2.67;;;2.47;;
8556;SDS011;4316;53.840;10.762;2024-02-26T05:06:49;4.67;;;2.20;;
8556;SDS011;4316;53.840;10.762;2024-02-26T05:09:15;3.57;;;2.63;;
8556;SDS011;4316;53.840;10.762;2024-02-26T05:11:40;2.80;;;2.60;;
8556;SDS011;4316;53.840;10.762;2024-02-26T05:14:06;2.77;;;2.57;;
8556;SDS011;4316;53.840;10.762;2024-02-26T05:16:32;3.40;;;2.87;;
8556;SDS011;4316;53.840;10.762;2024-02-26T05:18:57;2.73;;;2.53;;
8556;SDS011;4316;53.840;10.762;2024-02-26T05:21:26;2.67;;;2.50;;
8556;SDS011;4316;53.840;10.762;2024-02-26T05:23:52;3.10;;;2.77;;
8556;SDS011;4316;53.840;10.762;2024-02-26T05:26:22;2.80;;;2.60;;
8556;SDS011;4316;53.840;10.762;2024-02-26T05:28:48;2.50;;;2.40;;
8556;SDS011;4316;53.840;10.762;2024-02-26T05:31:15;2.60;;;2.43;;
8556;SDS011;4316;53.840;10.762;2024-02-26T05:33:41;2.67;;;2.47;;
8556;SDS011;4316;53.840;10.762;2024-02-26T05:36:07;2.77;;;2.53;;
8556;SDS011;4316;53.840;10.762;2024-02-26T05:38:33;3.67;;;3.37;;
8556;SDS011;4316;53.840;10.762;2024-02-26T05:40:59;3.00;;;2.80;;
8556;SDS011;4316;53.840;10.762;2024-02-26T05:43:28;3.40;;;2.60;;
8556;SDS011;4316;53.840;10.762;2024-02-26T05:45:54;3.17;;;2.70;;
8556;SDS011;4316;53.840;10.762;2024-02-26T05:48:21;2.67;;;2.47;;
8556;SDS011;4316;53.840;10.762;2024-02-26T05:50:47;2.93;;;2.73;;
8556;SDS011;4316;53.840;10.762;2024-02-26T05:53:12;3.07;;;2.87;;
8556;SDS011;4316;53.840;10.762;2024-02-26T05:55:38;2.63;;;2.30;;
8556;SDS011;4316;53.840;10.762;2024-02-26T05:58:04;2.77;;;2.57;;
8556;SDS011;4316;53.840;10.762;2024-02-26T06:00:30;2.70;;;2.53;;
8556;SDS011;4316;53.840;10.762;2024-02-26T06:02:56;2.63;;;2.43;;
8556;SDS011;4316;53.840;10.762;2024-02-26T06:05:22;3.93;;;2.73;;
8556;SDS011;4316;53.840;10.762;2024-02-26T06:07:48;2.80;;;2.60;;
8556;SDS011;4316;53.840;10.762;2024-02-26T06:10:14;3.20;;;3.00;;
8556;SDS011;4316;53.840;10.762;2024-02-26T06:12:40;2.70;;;2.50;;
8556;SDS011;4316;53.840;10.762;2024-02-26T06:15:06;3.13;;;2.80;;
8556;SDS011;4316;53.840;10.762;2024-02-26T06:17:32;4.23;;;2.80;;
8556;SDS011;4316;53.840;10.762;2024-02-26T06:19:59;3.27;;;2.97;;
8556;SDS011;4316;53.840;10.762;2024-02-26T06:22:25;2.60;;;2.40;;
8556;SDS011;4316;53.840;10.762;2024-02-26T06:24:51;3.03;;;2.83;;
8556;SDS011;4316;53.840;10.762;2024-02-26T06:27:17;3.30;;;3.10;;
8556;SDS011;4316;53.840;10.762;2024-02-26T06:29:43;3.10;;;2.87;;
8556;SDS011;4316;53.840;10.762;2024-02-26T06:32:09;3.40;;;3.10;;
8556;SDS011;4316;53.840;10.762;2024-02-26T06:34:35;3.37;;;3.07;;
8556;SDS011;4316;53.840;10.762;2024-02-26T06:37:01;2.53;;;2.43;;
8556;SDS011;4316;53.840;10.762;2024-02-26T06:39:28;4.43;;;3.20;;
8556;SDS011;4316;53.840;10.762;2024-02-26T06:41:54;3.70;;;3.33;;
8556;SDS011;4316;53.840;10.762;2024-02-26T06:44:25;3.40;;;3.10;;
8556;SDS011;4316;53.840;10.762;2024-02-26T06:46:57;3.23;;;2.97;;
8556;SDS011;4316;53.840;10.762;2024-02-26T06:49:23;4.37;;;3.40;;
8556;SDS011;4316;53.840;10.762;2024-02-26T06:51:49;3.50;;;3.30;;
8556;SDS011;4316;53.840;10.762;2024-02-26T06:54:15;3.57;;;3.27;;
8556;SDS011;4316;53.840;10.762;2024-02-26T06:56:41;3.10;;;2.80;;
8556;SDS011;4316;53.840;10.762;2024-02-26T06:59:06;3.83;;;3.47;;
8556;SDS011;4316;53.840;10.762;2024-02-26T07:01:32;3.80;;;3.50;;
8556;SDS011;4316;53.840;10.762;2024-02-26T07:03:58;3.90;;;3.40;;
8556;SDS011;4316;53.840;10.762;2024-02-26T07:06:24;3.53;;;3.27;;
8556;SDS011;4316;53.840;10.762;2024-02-26T07:08:50;4.00;;;3.60;;
8556;SDS011;4316;53.840;10.762;2024-02-26T07:11:16;3.47;;;3.20;;
8556;SDS011;4316;53.840;10.762;2024-02-26T07:13:44;4.23;;;3.50;;
8556;SDS011;4316;53.840;10.762;2024-02-26T07:16:09;3.20;;;3.00;;
8556;SDS011;4316;53.840;10.762;2024-02-26T07:18:35;4.77;;;3.63;;
8556;SDS011;4316;53.840;10.762;2024-02-26T07:21:02;3.70;;;3.40;;
8556;SDS011;4316;53.840;10.762;2024-02-26T07:23:29;3.33;;;3.13;;
8556;SDS011;4316;53.840;10.762;2024-02-26T07:25:55;3.50;;;3.20;;
8556;SDS011;4316;53.840;10.762;2024-02-26T07:28:21;4.20;;;3.90;;
8556;SDS011;4316;53.840;10.762;2024-02-26T07:30:46;4.33;;;3.87;;
8556;SDS011;4316;53.840;10.762;2024-02-26T07:33:12;5.43;;;4.37;;
8556;SDS011;4316;53.840;10.762;2024-02-26T07:35:38;5.03;;;4.53;;
8556;SDS011;4316;53.840;10.762;2024-02-26T07:38:07;29.00;;;5.27;;
8556;SDS011;4316;53.840;10.762;2024-02-26T07:40:33;5.90;;;4.97;;
8556;SDS011;4316;53.840;10.762;2024-02-26T07:42:58;21.23;;;4.73;;
8556;SDS011;4316;53.840;10.762;2024-02-26T07:45:24;4.97;;;4.50;;
8556;SDS011;4316;53.840;10.762;2024-02-26T07:47:50;8.17;;;5.87;;
8556;SDS011;4316;53.840;10.762;2024-02-26T07:50:17;5.33;;;4.80;;
8556;SDS011;4316;53.840;10.762;2024-02-26T07:52:43;8.77;;;5.33;;
8556;SDS011;4316;53.840;10.762;2024-02-26T07:55:10;8.23;;;6.17;;
8556;SDS011;4316;53.840;10.762;2024-02-26T07:57:35;17.70;;;5.80;;
8556;SDS011;4316;53.840;10.762;2024-02-26T08:00:04;7.10;;;5.13;;
8556;SDS011;4316;53.840;10.762;2024-02-26T08:02:34;8.93;;;7.07;;
8556;SDS011;4316;53.840;10.762;2024-02-26T08:05:00;16.20;;;6.50;;
8556;SDS011;4316;53.840;10.762;2024-02-26T08:07:26;7.13;;;5.90;;
8556;SDS011;4316;53.840;10.762;2024-02-26T08:09:53;7.77;;;6.30;;
8556;SDS011;4316;53.840;10.762;2024-02-26T08:12:19;50.03;;;6.50;;
8556;SDS011;4316;53.840;10.762;2024-02-26T08:14:45;22.30;;;7.30;;
8556;SDS011;4316;53.840;10.762;2024-02-26T08:17:11;13.83;;;7.10;;
8556;SDS011;4316;53.840;10.762;2024-02-26T08:19:37;32.53;;;6.97;;
8556;SDS011;4316;53.840;10.762;2024-02-26T08:22:06;9.63;;;7.40;;
8556;SDS011;4316;53.840;10.762;2024-02-26T08:24:32;55.03;;;7.20;;
8556;SDS011;4316;53.840;10.762;2024-02-26T08:26:57;13.03;;;6.67;;
8556;SDS011;4316;53.840;10.762;2024-02-26T08:29:23;60.23;;;6.73;;
8556;SDS011;4316;53.840;10.762;2024-02-26T08:31:49;9.00;;;7.00;;
8556;SDS011;4316;53.840;10.762;2024-02-26T08:34:15;31.17;;;7.27;;
8556;SDS011;4316;53.840;10.762;2024-02-26T08:36:41;12.63;;;6.63;;
8556;SDS011;4316;53.840;10.762;2024-02-26T08:39:08;12.13;;;6.93;;
8556;SDS011;4316;53.840;10.762;2024-02-26T08:41:34;11.13;;;7.83;;
8556;SDS011;4316;53.840;10.762;2024-02-26T08:43:59;14.77;;;7.60;;
8556;SDS011;4316;53.840;10.762;2024-02-26T08:46:25;18.33;;;9.00;;
8556;SDS011;4316;53.840;10.762;2024-02-26T08:48:51;17.73;;;9.00;;
8556;SDS011;4316;53.840;10.762;2024-02-26T08:51:17;12.80;;;8.97;;
8556;SDS011;4316;53.840;10.762;2024-02-26T08:53:43;16.63;;;10.40;;
8556;SDS011;4316;53.840;10.762;2024-02-26T08:56:08;22.93;;;10.10;;
8556;SDS011;4316;53.840;10.762;2024-02-26T08:58:36;20.57;;;9.90;;
8556;SDS011;4316;53.840;10.762;2024-02-26T09:01:01;17.03;;;10.27;;
8556;SDS011;4316;53.840;10.762;2024-02-26T09:03:28;18.57;;;11.70;;
8556;SDS011;4316;53.840;10.762;2024-02-26T09:05:53;15.20;;;10.73;;
8556;SDS011;4316;53.840;10.762;2024-02-26T09:08:20;20.63;;;13.37;;
8556;SDS011;4316;53.840;10.762;2024-02-26T09:10:47;18.67;;;11.37;;
8556;SDS011;4316;53.840;10.762;2024-02-26T09:13:13;18.77;;;11.43;;
8556;SDS011;4316;53.840;10.762;2024-02-26T09:15:38;18.17;;;12.57;;
8556;SDS011;4316;53.840;10.762;2024-02-26T09:18:04;19.63;;;13.90;;
8556;SDS011;4316;53.840;10.762;2024-02-26T09:20:30;20.77;;;14.90;;
8556;SDS011;4316;53.840;10.762;2024-02-26T09:22:56;29.77;;;17.00;;
8556;SDS011;4316;53.840;10.762;2024-02-26T09:25:21;25.70;;;16.10;;
8556;SDS011;4316;53.840;10.762;2024-02-26T09:27:47;27.47;;;17.40;;
8556;SDS011;4316;53.840;10.762;2024-02-26T09:30:13;24.23;;;16.20;;
8556;SDS011;4316;53.840;10.762;2024-02-26T09:32:39;24.63;;;16.50;;
8556;SDS011;4316;53.840;10.762;2024-02-26T09:35:06;27.00;;;18.23;;
8556;SDS011;4316;53.840;10.762;2024-02-26T09:37:32;23.30;;;16.47;;
8556;SDS011;4316;53.840;10.762;2024-02-26T09:39:59;24.73;;;16.80;;
8556;SDS011;4316;53.840;10.762;2024-02-26T09:42:25;22.17;;;16.03;;
8556;SDS011;4316;53.840;10.762;2024-02-26T09:44:53;23.90;;;15.77;;
8556;SDS011;4316;53.840;10.762;2024-02-26T09:47:25;23.30;;;15.93;;
8556;SDS011;4316;53.840;10.762;2024-02-26T09:49:53;21.03;;;13.97;;
8556;SDS011;4316;53.840;10.762;2024-02-26T09:52:21;19.97;;;14.93;;
8556;SDS011;4316;53.840;10.762;2024-02-26T09:54:48;20.53;;;14.33;;
8556;SDS011;4316;53.840;10.762;2024-02-26T09:57:15;20.77;;;15.00;;
8556;SDS011;4316;53.840;10.762;2024-02-26T09:59:42;21.83;;;15.90;;
8556;SDS011;4316;53.840;10.762;2024-02-26T10:02:09;21.90;;;14.77;;
8556;SDS011;4316;53.840;10.762;2024-02-26T10:04:38;15.80;;;12.63;;
8556;SDS011;4316;53.840;10.762;2024-02-26T10:07:06;16.40;;;12.37;;
8556;SDS011;4316;53.840;10.762;2024-02-26T10:09:35;16.70;;;11.50;;
8556;SDS011;4316;53.840;10.762;2024-02-26T10:12:02;17.00;;;12.83;;
8556;SDS011;4316;53.840;10.762;2024-02-26T10:14:28;17.07;;;12.13;;
8556;SDS011;4316;53.840;10.762;2024-02-26T10:16:54;15.30;;;12.23;;
8556;SDS011;4316;53.840;10.762;2024-02-26T10:19:27;17.80;;;13.23;;
8556;SDS011;4316;53.840;10.762;2024-02-26T10:21:57;18.53;;;13.70;;
8556;SDS011;4316;53.840;10.762;2024-02-26T10:24:25;17.77;;;12.10;;
8556;SDS011;4316;53.840;10.762;2024-02-26T10:26:54;17.03;;;12.50;;
8556;SDS011;4316;53.840;10.762;2024-02-26T10:29:21;20.10;;;12.40;;
8556;SDS011;4316;53.840;10.762;2024-02-26T10:31:50;16.67;;;12.83;;
8556;SDS011;4316;53.840;10.762;2024-02-26T10:34:16;18.27;;;13.67;;
8556;SDS011;4316;53.840;10.762;2024-02-26T10:36:43;18.00;;;14.10;;
8556;SDS011;4316;53.840;10.762;2024-02-26T10:39:11;17.93;;;12.73;;
8556;SDS011;4316;53.840;10.762;2024-02-26T10:41:39;18.17;;;14.00;;
8556;SDS011;4316;53.840;10.762;2024-02-26T10:44:09;18.07;;;13.50;;
8556;SDS011;4316;53.840;10.762;2024-02-26T10:46:36;20.40;;;16.27;;
8556;SDS011;4316;53.840;10.762;2024-02-26T10:49:02;18.00;;;14.13;;
8556;SDS011;4316;53.840;10.762;2024-02-26T10:51:31;21.17;;;12.30;;
8556;SDS011;4316;53.840;10.762;2024-02-26T10:53:59;14.23;;;11.20;;
8556;SDS011;4316;53.840;10.762;2024-02-26T10:56:27;18.37;;;12.40;;
8556;SDS011;4316;53.840;10.762;2024-02-26T10:58:57;13.57;;;10.77;;
8556;SDS011;4316;53.840;10.762;2024-02-26T11:01:24;15.30;;;11.73;;
8556;SDS011;4316;53.840;10.762;2024-02-26T11:03:52;14.00;;;11.47;;
8556;SDS011;4316;53.840;10.762;2024-02-26T11:06:22;15.67;;;11.80;;
8556;SDS011;4316;53.840;10.762;2024-02-26T11:08:48;15.60;;;11.73;;
8556;SDS011;4316;53.840;10.762;2024-02-26T11:11:15;14.03;;;11.53;;
8556;SDS011;4316;53.840;10.762;2024-02-26T11:13:42;15.20;;;11.20;;
8556;SDS011;4316;53.840;10.762;2024-02-26T11:16:14;13.60;;;11.20;;
8556;SDS011;4316;53.840;10.762;2024-02-26T11:18:48;13.80;;;11.10;;
8556;SDS011;4316;53.840;10.762;2024-02-26T11:21:18;13.90;;;11.00;;
8556;SDS011;4316;53.840;10.762;2024-02-26T11:23:45;15.73;;;11.67;;
8556;SDS011;4316;53.840;10.762;2024-02-26T11:26:11;17.60;;;10.87;;
8556;SDS011;4316;53.840;10.762;2024-02-26T11:28:39;15.10;;;10.67;;
8556;SDS011;4316;53.840;10.762;2024-02-26T11:31:06;13.63;;;10.90;;
8556;SDS011;4316;53.840;10.762;2024-02-26T11:33:33;13.30;;;10.50;;
8556;SDS011;4316;53.840;10.762;2024-02-26T11:36:12;13.07;;;11.50;;
8556;SDS011;4316;53.840;10.762;2024-02-26T11:38:39;13.93;;;11.27;;
8556;SDS011;4316;53.840;10.762;2024-02-26T11:41:05;13.37;;;10.60;;
8556;SDS011;4316;53.840;10.762;2024-02-26T11:46:24;15.57;;;11.77;;
8556;SDS011;4316;53.840;10.762;2024-02-26T11:49:00;13.37;;;11.93;;
8556;SDS011;4316;53.840;10.762;2024-02-26T11:51:33;15.67;;;11.37;;
8556;SDS011;4316;53.840;10.762;2024-02-26T11:54:00;15.37;;;12.50;;
8556;SDS011;4316;53.840;10.762;2024-02-26T11:56:26;16.47;;;12.00;;
8556;SDS011;4316;53.840;10.762;2024-02-26T11:58:59;18.83;;;12.17;;
8556;SDS011;4316;53.840;10.762;2024-02-26T12:01:39;17.50;;;12.87;;
8556;SDS011;4316;53.840;10.762;2024-02-26T12:04:24;17.17;;;13.87;;
8556;SDS011;4316;53.840;10.762;2024-02-26T12:06:53;17.90;;;13.80;;
8556;SDS011;4316;53.840;10.762;2024-02-26T12:09:31;19.23;;;13.63;;
8556;SDS011;4316;53.840;10.762;2024-02-26T12:11:57;17.90;;;13.30;;
8556;SDS011;4316;53.840;10.762;2024-02-26T12:14:26;19.30;;;14.83;;
8556;SDS011;4316;53.840;10.762;2024-02-26T12:16:52;23.80;;;15.43;;
8556;SDS011;4316;53.840;10.762;2024-02-26T12:19:20;23.43;;;15.87;;
8556;SDS011;4316;53.840;10.762;2024-02-26T12:21:51;24.10;;;16.40;;
8556;SDS011;4316;53.840;10.762;2024-02-26T12:24:20;23.23;;;14.73;;
8556;SDS011;4316;53.840;10.762;2024-02-26T12:26:46;22.10;;;15.30;;
8556;SDS011;4316;53.840;10.762;2024-02-26T12:29:12;20.00;;;14.47;;
8556;SDS011;4316;53.840;10.762;2024-02-26T12:31:39;20.40;;;14.27;;
8556;SDS011;4316;53.840;10.762;2024-02-26T12:34:06;20.70;;;15.33;;
8556;SDS011;4316;53.840;10.762;2024-02-26T12:36:33;23.97;;;15.23;;
8556;SDS011;4316;53.840;10.762;2024-02-26T12:39:00;21.93;;;15.10;;
8556;SDS011;4316;53.840;10.762;2024-02-26T12:41:31;21.73;;;14.87;;
8556;SDS011;4316;53.840;10.762;2024-02-26T12:43:57;20.50;;;15.23;;
8556;SDS011;4316;53.840;10.762;2024-02-26T12:46:24;23.80;;;15.40;;
8556;SDS011;4316;53.840;10.762;2024-02-26T12:48:49;21.57;;;15.90;;
8556;SDS011;4316;53.840;10.762;2024-02-26T12:51:16;24.10;;;16.77;;
8556;SDS011;4316;53.840;10.762;2024-02-26T12:53:43;26.03;;;17.67;;
8556;SDS011;4316;53.840;10.762;2024-02-26T12:56:10;20.97;;;16.07;;
8556;SDS011;4316;53.840;10.762;2024-02-26T12:58:39;28.33;;;15.97;;
8556;SDS011;4316;53.840;10.762;2024-02-26T13:01:06;24.70;;;15.37;;
8556;SDS011;4316;53.840;10.762;2024-02-26T13:03:35;25.80;;;16.37;;
8556;SDS011;4316;53.840;10.762;2024-02-26T13:06:02;22.97;;;15.33;;
8556;SDS011;4316;53.840;10.762;2024-02-26T13:08:29;21.93;;;15.53;;
8556;SDS011;4316;53.840;10.762;2024-02-26T13:10:56;23.20;;;15.33;;
8556;SDS011;4316;53.840;10.762;2024-02-26T13:13:24;26.37;;;17.00;;
8556;SDS011;4316;53.840;10.762;2024-02-26T13:15:50;27.83;;;16.13;;
8556;SDS011;4316;53.840;10.762;2024-02-26T13:18:47;23.97;;;15.33;;
8556;SDS011;4316;53.840;10.762;2024-02-26T13:21:13;22.40;;;15.10;;
8556;SDS011;4316;53.840;10.762;2024-02-26T13:23:40;22.77;;;16.43;;
8556;SDS011;4316;53.840;10.762;2024-02-26T13:26:07;18.77;;;14.10;;
8556;SDS011;4316;53.840;10.762;2024-02-26T13:28:34;25.20;;;14.67;;
8556;SDS011;4316;53.840;10.762;2024-02-26T13:31:00;22.17;;;13.60;;
8556;SDS011;4316;53.840;10.762;2024-02-26T13:33:29;22.80;;;13.97;;
8556;SDS011;4316;53.840;10.762;2024-02-26T13:35:56;20.80;;;15.33;;
8556;SDS011;4316;53.840;10.762;2024-02-26T13:38:22;17.77;;;13.93;;
8556;SDS011;4316;53.840;10.762;2024-02-26T13:40:52;31.67;;;13.43;;
8556;SDS011;4316;53.840;10.762;2024-02-26T13:43:18;20.63;;;14.63;;
8556;SDS011;4316;53.840;10.762;2024-02-26T13:45:44;22.27;;;13.77;;
8556;SDS011;4316;53.840;10.762;2024-02-26T13:48:11;27.90;;;16.93;;
8556;SDS011;4316;53.840;10.762;2024-02-26T13:50:41;17.90;;;14.10;;
8556;SDS011;4316;53.840;10.762;2024-02-26T13:53:10;17.57;;;14.07;;
8556;SDS011;4316;53.840;10.762;2024-02-26T13:55:37;17.27;;;13.30;;
8556;SDS011;4316;53.840;10.762;2024-02-26T13:58:05;17.90;;;12.67;;
8556;SDS011;4316;53.840;10.762;2024-02-26T14:00:32;18.17;;;12.53;;
8556;SDS011;4316;53.840;10.762;2024-02-26T14:03:02;16.97;;;13.00;;
8556;SDS011;4316;53.840;10.762;2024-02-26T14:05:28;18.00;;;12.50;;
8556;SDS011;4316;53.840;10.762;2024-02-26T14:07:54;14.73;;;12.10;;
8556;SDS011;4316;53.840;10.762;2024-02-26T14:10:20;15.67;;;11.77;;
8556;SDS011;4316;53.840;10.762;2024-02-26T14:12:46;13.93;;;10.60;;
8556;SDS011;4316;53.840;10.762;2024-02-26T14:15:12;15.63;;;11.47;;
8556;SDS011;4316;53.840;10.762;2024-02-26T14:17:38;19.23;;;13.63;;
8556;SDS011;4316;53.840;10.762;2024-02-26T14:20:03;14.50;;;11.43;;
8556;SDS011;4316;53.840;10.762;2024-02-26T14:22:30;13.93;;;10.90;;
8556;SDS011;4316;53.840;10.762;2024-02-26T14:24:56;12.60;;;10.60;;
8556;SDS011;4316;53.840;10.762;2024-02-26T14:27:22;13.37;;;10.20;;
8556;SDS011;4316;53.840;10.762;2024-02-26T14:29:48;14.00;;;10.43;;
8556;SDS011;4316;53.840;10.762;2024-02-26T14:32:14;13.83;;;10.53;;
8556;SDS011;4316;53.840;10.762;2024-02-26T14:34:40;14.17;;;11.10;;
8556;SDS011;4316;53.840;10.762;2024-02-26T14:37:06;16.10;;;11.90;;
8556;SDS011;4316;53.840;10.762;2024-02-26T14:39:32;13.33;;;10.67;;
8556;SDS011;4316;53.840;10.762;2024-02-26T14:41:58;15.10;;;12.20;;
8556;SDS011;4316;53.840;10.762;2024-02-26T14:44:25;13.57;;;10.77;;
8556;SDS011;4316;53.840;10.762;2024-02-26T14:46:51;13.43;;;10.60;;
8556;SDS011;4316;53.840;10.762;2024-02-26T14:49:17;14.33;;;11.20;;
8556;SDS011;4316;53.840;10.762;2024-02-26T14:51:43;15.63;;;11.33;;